sensor_id;sensor_type;location;lat;lon;timestamp;temperature;humidity
36850;DHT22;22783;51.034;3.726;2022-07-29T00:01:58;19.20;75.50
36850;DHT22;22783;51.034;3.726;2022-07-29T00:04:23;19.20;75.60
36850;DHT22;22783;51.034;3.726;2022-07-29T00:06:49;19.10;75.70
36850;DHT22;22783;51.034;3.726;2022-07-29T00:09:14;19.20;75.70
36850;DHT22;22783;51.034;3.726;2022-07-29T00:11:40;19.20;75.50
36850;DHT22;22783;51.034;3.726;2022-07-29T00:14:06;19.10;75.60
36850;DHT22;22783;51.034;3.726;2022-07-29T00:16:31;19.10;75.60
36850;DHT22;22783;51.034;3.726;2022-07-29T00:18:57;19.10;75.60
36850;DHT22;22783;51.034;3.726;2022-07-29T00:21:23;19.10;75.60
36850;DHT22;22783;51.034;3.726;2022-07-29T00:23:48;19.10;75.50
36850;DHT22;22783;51.034;3.726;2022-07-29T00:26:14;19.10;75.70
36850;DHT22;22783;51.034;3.726;2022-07-29T00:28:40;19.00;75.80
36850;DHT22;22783;51.034;3.726;2022-07-29T00:31:05;19.00;75.80
36850;DHT22;22783;51.034;3.726;2022-07-29T00:33:31;19.00;75.90
36850;DHT22;22783;51.034;3.726;2022-07-29T00:35:57;19.00;76.20
36850;DHT22;22783;51.034;3.726;2022-07-29T00:38:22;18.90;76.20
36850;DHT22;22783;51.034;3.726;2022-07-29T00:40:48;18.90;76.20
36850;DHT22;22783;51.034;3.726;2022-07-29T00:43:14;18.90;76.10
36850;DHT22;22783;51.034;3.726;2022-07-29T00:45:41;18.90;76.20
36850;DHT22;22783;51.034;3.726;2022-07-29T00:48:07;18.80;76.30
36850;DHT22;22783;51.034;3.726;2022-07-29T00:50:34;18.80;76.30
36850;DHT22;22783;51.034;3.726;2022-07-29T00:53:01;18.70;76.80
36850;DHT22;22783;51.034;3.726;2022-07-29T00:55:28;18.70;77.00
36850;DHT22;22783;51.034;3.726;2022-07-29T00:57:55;18.70;77.10
36850;DHT22;22783;51.034;3.726;2022-07-29T01:00:24;18.70;77.30
36850;DHT22;22783;51.034;3.726;2022-07-29T01:02:50;18.60;77.30
36850;DHT22;22783;51.034;3.726;2022-07-29T01:05:24;18.60;77.50
36850;DHT22;22783;51.034;3.726;2022-07-29T01:07:53;18.50;77.80
36850;DHT22;22783;51.034;3.726;2022-07-29T01:10:21;18.40;78.10
36850;DHT22;22783;51.034;3.726;2022-07-29T01:12:48;18.40;78.30
36850;DHT22;22783;51.034;3.726;2022-07-29T01:15:15;18.40;78.70
36850;DHT22;22783;51.034;3.726;2022-07-29T01:31:25;18.30;78.90
36850;DHT22;22783;51.034;3.726;2022-07-29T01:33:58;18.30;79.20
36850;DHT22;22783;51.034;3.726;2022-07-29T01:36:27;18.20;79.80
36850;DHT22;22783;51.034;3.726;2022-07-29T01:39:02;18.20;80.00
36850;DHT22;22783;51.034;3.726;2022-07-29T01:41:31;18.10;80.20
36850;DHT22;22783;51.034;3.726;2022-07-29T01:44:01;18.10;80.40
36850;DHT22;22783;51.034;3.726;2022-07-29T01:46:34;18.10;80.60
36850;DHT22;22783;51.034;3.726;2022-07-29T01:49:08;18.00;80.70
36850;DHT22;22783;51.034;3.726;2022-07-29T01:51:49;18.00;80.90
36850;DHT22;22783;51.034;3.726;2022-07-29T01:56:51;17.90;81.40
36850;DHT22;22783;51.034;3.726;2022-07-29T01:59:17;17.90;81.70
36850;DHT22;22783;51.034;3.726;2022-07-29T02:01:45;17.90;81.70
36850;DHT22;22783;51.034;3.726;2022-07-29T02:04:12;17.90;81.90
36850;DHT22;22783;51.034;3.726;2022-07-29T02:06:42;17.80;81.80
36850;DHT22;22783;51.034;3.726;2022-07-29T02:09:10;17.80;82.10
36850;DHT22;22783;51.034;3.726;2022-07-29T02:11:38;17.80;82.20
36850;DHT22;22783;51.034;3.726;2022-07-29T02:14:05;17.80;82.40
36850;DHT22;22783;51.034;3.726;2022-07-29T02:16:33;17.80;82.50
36850;DHT22;22783;51.034;3.726;2022-07-29T02:19:02;17.80;82.60
36850;DHT22;22783;51.034;3.726;2022-07-29T02:21:29;17.70;82.70
36850;DHT22;22783;51.034;3.726;2022-07-29T02:23:59;17.70;82.90
36850;DHT22;22783;51.034;3.726;2022-07-29T02:26:27;17.60;83.20
36850;DHT22;22783;51.034;3.726;2022-07-29T02:28:55;17.60;83.40
36850;DHT22;22783;51.034;3.726;2022-07-29T02:31:24;17.60;83.60
36850;DHT22;22783;51.034;3.726;2022-07-29T02:33:52;17.50;83.70
36850;DHT22;22783;51.034;3.726;2022-07-29T02:36:21;17.50;83.80
36850;DHT22;22783;51.034;3.726;2022-07-29T02:38:48;17.50;83.90
36850;DHT22;22783;51.034;3.726;2022-07-29T02:41:20;17.50;84.00
36850;DHT22;22783;51.034;3.726;2022-07-29T02:43:52;17.50;84.10
36850;DHT22;22783;51.034;3.726;2022-07-29T02:46:23;17.50;84.20
36850;DHT22;22783;51.034;3.726;2022-07-29T02:51:55;17.40;84.60
36850;DHT22;22783;51.034;3.726;2022-07-29T02:54:31;17.30;84.70
36850;DHT22;22783;51.034;3.726;2022-07-29T02:57:00;17.30;85.10
36850;DHT22;22783;51.034;3.726;2022-07-29T02:59:27;17.20;85.40
36850;DHT22;22783;51.034;3.726;2022-07-29T03:01:58;17.20;85.50
36850;DHT22;22783;51.034;3.726;2022-07-29T03:04:26;17.20;85.60
36850;DHT22;22783;51.034;3.726;2022-07-29T03:06:53;17.20;85.70
36850;DHT22;22783;51.034;3.726;2022-07-29T03:09:21;17.20;86.30
36850;DHT22;22783;51.034;3.726;2022-07-29T03:11:47;17.20;85.90
36850;DHT22;22783;51.034;3.726;2022-07-29T03:14:13;17.10;86.00
36850;DHT22;22783;51.034;3.726;2022-07-29T03:16:39;17.10;86.20
36850;DHT22;22783;51.034;3.726;2022-07-29T03:19:05;17.10;86.50
36850;DHT22;22783;51.034;3.726;2022-07-29T03:21:31;17.10;86.70
36850;DHT22;22783;51.034;3.726;2022-07-29T03:23:57;17.10;86.90
36850;DHT22;22783;51.034;3.726;2022-07-29T03:26:23;17.10;87.00
36850;DHT22;22783;51.034;3.726;2022-07-29T03:28:48;17.00;87.20
36850;DHT22;22783;51.034;3.726;2022-07-29T03:31:14;17.00;87.30
36850;DHT22;22783;51.034;3.726;2022-07-29T03:33:40;17.10;87.30
36850;DHT22;22783;51.034;3.726;2022-07-29T03:36:05;17.00;87.60
36850;DHT22;22783;51.034;3.726;2022-07-29T03:38:33;17.00;87.90
36850;DHT22;22783;51.034;3.726;2022-07-29T03:41:05;17.00;88.10
36850;DHT22;22783;51.034;3.726;2022-07-29T03:43:35;16.90;88.20
36850;DHT22;22783;51.034;3.726;2022-07-29T03:46:04;17.00;88.30
36850;DHT22;22783;51.034;3.726;2022-07-29T03:48:33;17.00;88.10
36850;DHT22;22783;51.034;3.726;2022-07-29T03:51:01;17.00;88.20
36850;DHT22;22783;51.034;3.726;2022-07-29T03:53:26;17.00;88.50
36850;DHT22;22783;51.034;3.726;2022-07-29T03:55:56;16.90;88.60
36850;DHT22;22783;51.034;3.726;2022-07-29T03:58:23;17.00;88.70
36850;DHT22;22783;51.034;3.726;2022-07-29T04:00:52;17.00;88.70
36850;DHT22;22783;51.034;3.726;2022-07-29T04:03:19;17.00;88.60
36850;DHT22;22783;51.034;3.726;2022-07-29T04:05:45;17.00;88.80
36850;DHT22;22783;51.034;3.726;2022-07-29T04:08:22;16.90;89.20
36850;DHT22;22783;51.034;3.726;2022-07-29T04:10:48;16.90;89.30
36850;DHT22;22783;51.034;3.726;2022-07-29T04:13:13;16.90;89.40
36850;DHT22;22783;51.034;3.726;2022-07-29T04:15:39;16.90;89.60
36850;DHT22;22783;51.034;3.726;2022-07-29T04:18:05;16.90;89.70
36850;DHT22;22783;51.034;3.726;2022-07-29T04:20:31;16.90;90.30
36850;DHT22;22783;51.034;3.726;2022-07-29T04:22:57;16.80;90.10
36850;DHT22;22783;51.034;3.726;2022-07-29T04:25:22;16.80;90.30
36850;DHT22;22783;51.034;3.726;2022-07-29T04:27:48;16.70;90.40
36850;DHT22;22783;51.034;3.726;2022-07-29T04:30:26;16.70;90.50
36850;DHT22;22783;51.034;3.726;2022-07-29T04:32:52;16.70;90.60
36850;DHT22;22783;51.034;3.726;2022-07-29T04:35:19;16.70;90.60
36850;DHT22;22783;51.034;3.726;2022-07-29T04:37:44;16.80;90.60
36850;DHT22;22783;51.034;3.726;2022-07-29T04:40:10;16.90;90.50
36850;DHT22;22783;51.034;3.726;2022-07-29T04:42:37;16.90;90.30
36850;DHT22;22783;51.034;3.726;2022-07-29T04:45:03;17.00;90.30
36850;DHT22;22783;51.034;3.726;2022-07-29T04:47:29;17.00;90.30
36850;DHT22;22783;51.034;3.726;2022-07-29T04:49:55;17.00;90.60
36850;DHT22;22783;51.034;3.726;2022-07-29T04:52:22;17.00;90.30
36850;DHT22;22783;51.034;3.726;2022-07-29T04:54:48;17.00;90.30
36850;DHT22;22783;51.034;3.726;2022-07-29T04:57:13;17.00;90.30
36850;DHT22;22783;51.034;3.726;2022-07-29T04:59:39;17.00;90.30
36850;DHT22;22783;51.034;3.726;2022-07-29T05:02:04;17.10;90.10
36850;DHT22;22783;51.034;3.726;2022-07-29T05:04:30;17.20;90.10
36850;DHT22;22783;51.034;3.726;2022-07-29T05:06:56;17.20;89.90
36850;DHT22;22783;51.034;3.726;2022-07-29T05:09:21;17.30;89.50
36850;DHT22;22783;51.034;3.726;2022-07-29T05:11:47;17.30;89.20
36850;DHT22;22783;51.034;3.726;2022-07-29T05:14:13;17.40;88.80
36850;DHT22;22783;51.034;3.726;2022-07-29T05:16:39;17.50;88.60
36850;DHT22;22783;51.034;3.726;2022-07-29T05:19:05;17.50;88.30
36850;DHT22;22783;51.034;3.726;2022-07-29T05:21:31;17.50;88.80
36850;DHT22;22783;51.034;3.726;2022-07-29T05:23:57;17.60;88.00
36850;DHT22;22783;51.034;3.726;2022-07-29T05:26:23;17.70;87.50
36850;DHT22;22783;51.034;3.726;2022-07-29T05:28:48;17.80;87.10
36850;DHT22;22783;51.034;3.726;2022-07-29T05:31:14;17.90;86.70
36850;DHT22;22783;51.034;3.726;2022-07-29T05:33:41;17.90;86.60
36850;DHT22;22783;51.034;3.726;2022-07-29T05:36:07;18.00;86.30
36850;DHT22;22783;51.034;3.726;2022-07-29T05:38:33;18.10;86.10
36850;DHT22;22783;51.034;3.726;2022-07-29T05:41:01;18.20;85.40
36850;DHT22;22783;51.034;3.726;2022-07-29T05:43:28;18.20;85.50
36850;DHT22;22783;51.034;3.726;2022-07-29T05:45:54;18.20;85.20
36850;DHT22;22783;51.034;3.726;2022-07-29T05:48:19;18.30;85.20
36850;DHT22;22783;51.034;3.726;2022-07-29T05:50:45;18.40;84.80
36850;DHT22;22783;51.034;3.726;2022-07-29T05:53:30;18.50;85.20
36850;DHT22;22783;51.034;3.726;2022-07-29T05:55:55;18.50;84.70
36850;DHT22;22783;51.034;3.726;2022-07-29T05:58:21;18.50;84.80
36850;DHT22;22783;51.034;3.726;2022-07-29T06:00:49;18.40;85.10
36850;DHT22;22783;51.034;3.726;2022-07-29T06:03:14;18.40;85.30
36850;DHT22;22783;51.034;3.726;2022-07-29T06:05:40;18.40;85.40
36850;DHT22;22783;51.034;3.726;2022-07-29T06:08:06;18.50;85.20
36850;DHT22;22783;51.034;3.726;2022-07-29T06:10:34;18.50;85.30
36850;DHT22;22783;51.034;3.726;2022-07-29T06:13:00;18.30;85.60
36850;DHT22;22783;51.034;3.726;2022-07-29T06:15:25;18.40;86.00
36850;DHT22;22783;51.034;3.726;2022-07-29T06:17:51;18.50;85.50
36850;DHT22;22783;51.034;3.726;2022-07-29T06:20:18;18.50;85.00
36850;DHT22;22783;51.034;3.726;2022-07-29T06:22:43;18.60;85.00
36850;DHT22;22783;51.034;3.726;2022-07-29T06:25:09;18.70;84.90
36850;DHT22;22783;51.034;3.726;2022-07-29T06:27:35;18.60;84.60
36850;DHT22;22783;51.034;3.726;2022-07-29T06:30:01;18.70;84.40
36850;DHT22;22783;51.034;3.726;2022-07-29T06:32:27;18.90;84.10
36850;DHT22;22783;51.034;3.726;2022-07-29T06:34:53;18.90;83.60
36850;DHT22;22783;51.034;3.726;2022-07-29T06:37:18;19.00;83.40
36850;DHT22;22783;51.034;3.726;2022-07-29T06:39:44;19.00;84.00
36850;DHT22;22783;51.034;3.726;2022-07-29T06:42:10;19.00;83.40
36850;DHT22;22783;51.034;3.726;2022-07-29T06:44:54;19.10;82.70
36850;DHT22;22783;51.034;3.726;2022-07-29T06:47:20;19.20;82.70
36850;DHT22;22783;51.034;3.726;2022-07-29T06:49:45;19.30;82.60
36850;DHT22;22783;51.034;3.726;2022-07-29T06:52:11;19.20;83.00
36850;DHT22;22783;51.034;3.726;2022-07-29T06:54:37;19.30;82.30
36850;DHT22;22783;51.034;3.726;2022-07-29T06:57:04;19.40;81.80
36850;DHT22;22783;51.034;3.726;2022-07-29T06:59:34;19.60;81.60
36850;DHT22;22783;51.034;3.726;2022-07-29T07:02:00;19.80;80.50
36850;DHT22;22783;51.034;3.726;2022-07-29T07:04:26;19.90;79.60
36850;DHT22;22783;51.034;3.726;2022-07-29T07:06:54;20.10;79.00
36850;DHT22;22783;51.034;3.726;2022-07-29T07:12:44;21.40;75.70
36850;DHT22;22783;51.034;3.726;2022-07-29T07:18:33;25.40;63.50
36850;DHT22;22783;51.034;3.726;2022-07-29T07:24:31;29.10;55.80
36850;DHT22;22783;51.034;3.726;2022-07-29T07:30:32;30.20;50.40
36850;DHT22;22783;51.034;3.726;2022-07-29T07:36:26;29.90;50.70
36850;DHT22;22783;51.034;3.726;2022-07-29T07:42:00;26.90;55.80
36850;DHT22;22783;51.034;3.726;2022-07-29T07:44:26;26.30;56.90
36850;DHT22;22783;51.034;3.726;2022-07-29T07:50:16;26.60;56.90
36850;DHT22;22783;51.034;3.726;2022-07-29T07:52:47;27.60;55.50
36850;DHT22;22783;51.034;3.726;2022-07-29T07:55:13;28.20;53.70
36850;DHT22;22783;51.034;3.726;2022-07-29T07:57:42;29.80;51.70
36850;DHT22;22783;51.034;3.726;2022-07-29T08:00:10;31.60;48.60
36850;DHT22;22783;51.034;3.726;2022-07-29T08:02:37;32.40;46.80
36850;DHT22;22783;51.034;3.726;2022-07-29T08:05:05;32.70;46.50
36850;DHT22;22783;51.034;3.726;2022-07-29T08:07:31;33.30;45.20
36850;DHT22;22783;51.034;3.726;2022-07-29T08:09:56;33.40;44.70
36850;DHT22;22783;51.034;3.726;2022-07-29T08:12:22;34.50;44.00
36850;DHT22;22783;51.034;3.726;2022-07-29T08:14:48;34.40;43.30
36850;DHT22;22783;51.034;3.726;2022-07-29T08:17:13;34.30;43.30
36850;DHT22;22783;51.034;3.726;2022-07-29T08:19:39;33.80;44.00
36850;DHT22;22783;51.034;3.726;2022-07-29T08:22:05;35.00;43.10
36850;DHT22;22783;51.034;3.726;2022-07-29T08:24:31;36.60;41.70
36850;DHT22;22783;51.034;3.726;2022-07-29T08:27:12;36.80;40.50
36850;DHT22;22783;51.034;3.726;2022-07-29T08:29:39;38.10;40.00
36850;DHT22;22783;51.034;3.726;2022-07-29T08:32:05;37.50;38.80
36850;DHT22;22783;51.034;3.726;2022-07-29T08:34:31;35.70;40.30
36850;DHT22;22783;51.034;3.726;2022-07-29T08:36:57;35.60;41.30
36850;DHT22;22783;51.034;3.726;2022-07-29T08:39:24;35.50;41.20
36850;DHT22;22783;51.034;3.726;2022-07-29T08:41:50;34.40;42.00
36850;DHT22;22783;51.034;3.726;2022-07-29T08:44:19;35.50;40.90
36850;DHT22;22783;51.034;3.726;2022-07-29T08:46:47;35.70;40.20
36850;DHT22;22783;51.034;3.726;2022-07-29T08:49:13;36.70;39.60
36850;DHT22;22783;51.034;3.726;2022-07-29T08:51:40;37.70;38.20
36850;DHT22;22783;51.034;3.726;2022-07-29T08:54:06;38.10;38.00
36850;DHT22;22783;51.034;3.726;2022-07-29T08:56:33;37.70;37.70
36850;DHT22;22783;51.034;3.726;2022-07-29T08:59:03;37.20;38.30
36850;DHT22;22783;51.034;3.726;2022-07-29T09:01:33;37.90;38.30
36850;DHT22;22783;51.034;3.726;2022-07-29T09:03:59;38.40;37.50
36850;DHT22;22783;51.034;3.726;2022-07-29T09:06:30;39.20;36.80
36850;DHT22;22783;51.034;3.726;2022-07-29T09:08:59;39.40;37.00
36850;DHT22;22783;51.034;3.726;2022-07-29T09:11:25;39.90;36.30
36850;DHT22;22783;51.034;3.726;2022-07-29T09:13:51;39.50;36.40
36850;DHT22;22783;51.034;3.726;2022-07-29T09:16:17;39.50;36.00
36850;DHT22;22783;51.034;3.726;2022-07-29T09:18:44;40.40;35.60
36850;DHT22;22783;51.034;3.726;2022-07-29T09:21:13;40.10;35.50
36850;DHT22;22783;51.034;3.726;2022-07-29T09:24:18;39.10;35.60
36850;DHT22;22783;51.034;3.726;2022-07-29T09:26:45;37.20;37.80
36850;DHT22;22783;51.034;3.726;2022-07-29T09:29:13;38.30;37.10
36850;DHT22;22783;51.034;3.726;2022-07-29T09:31:40;37.70;37.00
36850;DHT22;22783;51.034;3.726;2022-07-29T09:34:08;36.60;38.10
36850;DHT22;22783;51.034;3.726;2022-07-29T09:36:47;35.40;39.80
36850;DHT22;22783;51.034;3.726;2022-07-29T09:39:14;35.80;40.10
36850;DHT22;22783;51.034;3.726;2022-07-29T09:41:51;36.00;38.30
36850;DHT22;22783;51.034;3.726;2022-07-29T09:50:51;33.80;40.90
36850;DHT22;22783;51.034;3.726;2022-07-29T09:53:50;34.60;40.10
36850;DHT22;22783;51.034;3.726;2022-07-29T09:56:15;35.40;39.50
36850;DHT22;22783;51.034;3.726;2022-07-29T09:58:41;36.60;38.10
36850;DHT22;22783;51.034;3.726;2022-07-29T10:01:07;37.20;36.90
36850;DHT22;22783;51.034;3.726;2022-07-29T10:03:52;36.40;37.60
36850;DHT22;22783;51.034;3.726;2022-07-29T10:06:18;37.00;36.70
36850;DHT22;22783;51.034;3.726;2022-07-29T10:08:43;37.00;36.70
36850;DHT22;22783;51.034;3.726;2022-07-29T10:11:11;35.70;37.40
36850;DHT22;22783;51.034;3.726;2022-07-29T10:13:38;35.50;38.80
36850;DHT22;22783;51.034;3.726;2022-07-29T10:16:05;36.40;37.60
36850;DHT22;22783;51.034;3.726;2022-07-29T10:18:32;37.50;36.20
36850;DHT22;22783;51.034;3.726;2022-07-29T10:20:59;36.20;37.00
36850;DHT22;22783;51.034;3.726;2022-07-29T10:23:28;35.10;38.40
36850;DHT22;22783;51.034;3.726;2022-07-29T10:25:54;34.20;39.90
36850;DHT22;22783;51.034;3.726;2022-07-29T10:28:20;34.60;38.80
36850;DHT22;22783;51.034;3.726;2022-07-29T10:30:46;34.20;38.80
36850;DHT22;22783;51.034;3.726;2022-07-29T10:36:05;36.80;37.00
36850;DHT22;22783;51.034;3.726;2022-07-29T10:38:52;36.60;36.20
36850;DHT22;22783;51.034;3.726;2022-07-29T10:44:16;36.20;36.80
36850;DHT22;22783;51.034;3.726;2022-07-29T10:46:42;36.10;36.80
36850;DHT22;22783;51.034;3.726;2022-07-29T10:49:18;34.40;38.70
36850;DHT22;22783;51.034;3.726;2022-07-29T10:51:54;34.90;37.90
36850;DHT22;22783;51.034;3.726;2022-07-29T10:57:27;36.40;36.20
36850;DHT22;22783;51.034;3.726;2022-07-29T11:05:20;33.00;38.10
36850;DHT22;22783;51.034;3.726;2022-07-29T11:08:44;31.80;40.50
36850;DHT22;22783;51.034;3.726;2022-07-29T11:17:19;28.90;44.60
36850;DHT22;22783;51.034;3.726;2022-07-29T11:19:45;28.30;45.10
36850;DHT22;22783;51.034;3.726;2022-07-29T11:22:11;28.20;44.70
36850;DHT22;22783;51.034;3.726;2022-07-29T11:28:16;28.20;44.90
36850;DHT22;22783;51.034;3.726;2022-07-29T11:30:51;29.20;44.20
36850;DHT22;22783;51.034;3.726;2022-07-29T11:33:30;29.50;43.70
36850;DHT22;22783;51.034;3.726;2022-07-29T11:36:09;29.90;43.20
36850;DHT22;22783;51.034;3.726;2022-07-29T11:45:03;31.20;42.40
36850;DHT22;22783;51.034;3.726;2022-07-29T11:47:31;32.10;41.10
36850;DHT22;22783;51.034;3.726;2022-07-29T11:49:58;32.40;40.80
36850;DHT22;22783;51.034;3.726;2022-07-29T11:52:33;31.10;42.10
36850;DHT22;22783;51.034;3.726;2022-07-29T11:55:01;31.80;41.60
36850;DHT22;22783;51.034;3.726;2022-07-29T11:57:28;32.10;41.00
36850;DHT22;22783;51.034;3.726;2022-07-29T11:59:55;32.30;41.00
36850;DHT22;22783;51.034;3.726;2022-07-29T12:02:23;31.90;40.70
36850;DHT22;22783;51.034;3.726;2022-07-29T12:04:50;31.20;41.80
36850;DHT22;22783;51.034;3.726;2022-07-29T12:07:36;30.70;42.50
36850;DHT22;22783;51.034;3.726;2022-07-29T12:13:38;29.40;43.40
36850;DHT22;22783;51.034;3.726;2022-07-29T12:16:05;29.60;44.80
36850;DHT22;22783;51.034;3.726;2022-07-29T12:18:31;29.10;44.10
36850;DHT22;22783;51.034;3.726;2022-07-29T12:21:01;29.20;43.80
36850;DHT22;22783;51.034;3.726;2022-07-29T12:23:31;29.30;43.80
36850;DHT22;22783;51.034;3.726;2022-07-29T12:25:58;29.60;43.50
36850;DHT22;22783;51.034;3.726;2022-07-29T12:28:24;29.70;43.30
36850;DHT22;22783;51.034;3.726;2022-07-29T12:30:50;29.30;43.80
36850;DHT22;22783;51.034;3.726;2022-07-29T12:33:22;29.30;44.20
36850;DHT22;22783;51.034;3.726;2022-07-29T12:35:56;29.60;44.00
36850;DHT22;22783;51.034;3.726;2022-07-29T12:38:22;29.40;44.40
36850;DHT22;22783;51.034;3.726;2022-07-29T12:40:49;29.80;43.70
36850;DHT22;22783;51.034;3.726;2022-07-29T12:43:24;30.00;43.40
36850;DHT22;22783;51.034;3.726;2022-07-29T12:45:52;29.30;44.20
36850;DHT22;22783;51.034;3.726;2022-07-29T12:51:31;28.40;45.00
36850;DHT22;22783;51.034;3.726;2022-07-29T12:54:12;28.70;44.80
36850;DHT22;22783;51.034;3.726;2022-07-29T12:56:39;29.20;44.20
36850;DHT22;22783;51.034;3.726;2022-07-29T13:01:38;29.60;43.40
36850;DHT22;22783;51.034;3.726;2022-07-29T13:04:04;29.60;43.20
36850;DHT22;22783;51.034;3.726;2022-07-29T13:06:41;29.30;43.90
36850;DHT22;22783;51.034;3.726;2022-07-29T13:09:11;29.40;44.70
36850;DHT22;22783;51.034;3.726;2022-07-29T13:11:46;29.40;44.40
36850;DHT22;22783;51.034;3.726;2022-07-29T13:14:14;29.50;44.50
36850;DHT22;22783;51.034;3.726;2022-07-29T13:19:52;29.80;45.30
36850;DHT22;22783;51.034;3.726;2022-07-29T13:22:21;29.30;45.40
36850;DHT22;22783;51.034;3.726;2022-07-29T13:24:55;29.20;45.70
36850;DHT22;22783;51.034;3.726;2022-07-29T13:27:26;29.50;45.50
36850;DHT22;22783;51.034;3.726;2022-07-29T13:29:54;29.60;45.70
36850;DHT22;22783;51.034;3.726;2022-07-29T13:32:22;29.70;45.90
36850;DHT22;22783;51.034;3.726;2022-07-29T13:34:48;29.40;46.40
36850;DHT22;22783;51.034;3.726;2022-07-29T13:37:15;29.00;46.80
36850;DHT22;22783;51.034;3.726;2022-07-29T13:39:42;28.80;47.50
36850;DHT22;22783;51.034;3.726;2022-07-29T13:42:08;29.10;47.30
36850;DHT22;22783;51.034;3.726;2022-07-29T13:44:35;29.20;46.40
36850;DHT22;22783;51.034;3.726;2022-07-29T13:47:01;29.10;46.80
36850;DHT22;22783;51.034;3.726;2022-07-29T13:49:27;28.80;46.90
36850;DHT22;22783;51.034;3.726;2022-07-29T13:51:52;28.60;46.80
36850;DHT22;22783;51.034;3.726;2022-07-29T13:54:18;28.40;47.10
36850;DHT22;22783;51.034;3.726;2022-07-29T13:56:44;28.50;47.20
36850;DHT22;22783;51.034;3.726;2022-07-29T13:59:10;28.80;46.80
36850;DHT22;22783;51.034;3.726;2022-07-29T14:01:38;29.00;46.60
36850;DHT22;22783;51.034;3.726;2022-07-29T14:04:07;28.50;47.20
36850;DHT22;22783;51.034;3.726;2022-07-29T14:06:33;28.30;47.50
36850;DHT22;22783;51.034;3.726;2022-07-29T14:08:59;28.40;47.50
36850;DHT22;22783;51.034;3.726;2022-07-29T14:11:25;28.10;48.30
36850;DHT22;22783;51.034;3.726;2022-07-29T14:13:51;27.80;48.90
36850;DHT22;22783;51.034;3.726;2022-07-29T14:16:17;28.00;48.70
36850;DHT22;22783;51.034;3.726;2022-07-29T14:18:42;27.90;49.00
36850;DHT22;22783;51.034;3.726;2022-07-29T14:21:08;28.20;48.40
36850;DHT22;22783;51.034;3.726;2022-07-29T14:23:34;28.30;47.70
36850;DHT22;22783;51.034;3.726;2022-07-29T14:26:00;28.40;46.90
36850;DHT22;22783;51.034;3.726;2022-07-29T14:28:25;28.60;47.00
36850;DHT22;22783;51.034;3.726;2022-07-29T14:30:51;28.80;46.30
36850;DHT22;22783;51.034;3.726;2022-07-29T14:33:17;29.00;45.90
36850;DHT22;22783;51.034;3.726;2022-07-29T14:35:42;29.00;46.30
36850;DHT22;22783;51.034;3.726;2022-07-29T14:38:09;29.00;46.70
36850;DHT22;22783;51.034;3.726;2022-07-29T14:40:34;28.80;46.40
36850;DHT22;22783;51.034;3.726;2022-07-29T14:43:00;28.50;46.90
36850;DHT22;22783;51.034;3.726;2022-07-29T14:45:27;28.40;47.30
36850;DHT22;22783;51.034;3.726;2022-07-29T14:47:53;28.40;47.60
36850;DHT22;22783;51.034;3.726;2022-07-29T14:50:19;27.90;48.30
36850;DHT22;22783;51.034;3.726;2022-07-29T14:52:45;27.80;48.30
36850;DHT22;22783;51.034;3.726;2022-07-29T14:55:10;27.80;48.70
36850;DHT22;22783;51.034;3.726;2022-07-29T14:57:36;28.10;48.60
36850;DHT22;22783;51.034;3.726;2022-07-29T15:00:04;27.90;48.50
36850;DHT22;22783;51.034;3.726;2022-07-29T15:02:32;27.50;49.20
36850;DHT22;22783;51.034;3.726;2022-07-29T15:04:58;27.50;49.50
36850;DHT22;22783;51.034;3.726;2022-07-29T15:07:23;27.30;49.40
36850;DHT22;22783;51.034;3.726;2022-07-29T15:09:49;27.50;49.40
36850;DHT22;22783;51.034;3.726;2022-07-29T15:12:15;27.90;48.90
36850;DHT22;22783;51.034;3.726;2022-07-29T15:14:41;28.00;48.80
36850;DHT22;22783;51.034;3.726;2022-07-29T15:17:06;27.90;48.90
36850;DHT22;22783;51.034;3.726;2022-07-29T15:19:32;28.20;48.80
36850;DHT22;22783;51.034;3.726;2022-07-29T15:21:58;28.00;48.70
36850;DHT22;22783;51.034;3.726;2022-07-29T15:24:24;27.60;49.30
36850;DHT22;22783;51.034;3.726;2022-07-29T15:26:49;27.70;49.50
36850;DHT22;22783;51.034;3.726;2022-07-29T15:29:15;27.70;49.30
36850;DHT22;22783;51.034;3.726;2022-07-29T15:31:41;27.50;49.30
36850;DHT22;22783;51.034;3.726;2022-07-29T15:34:07;27.60;49.60
36850;DHT22;22783;51.034;3.726;2022-07-29T15:36:33;27.60;49.60
36850;DHT22;22783;51.034;3.726;2022-07-29T15:38:59;27.80;49.40
36850;DHT22;22783;51.034;3.726;2022-07-29T15:41:24;27.60;49.60
36850;DHT22;22783;51.034;3.726;2022-07-29T15:43:50;27.40;50.50
36850;DHT22;22783;51.034;3.726;2022-07-29T15:46:18;27.30;50.80
36850;DHT22;22783;51.034;3.726;2022-07-29T15:49:03;26.90;51.60
36850;DHT22;22783;51.034;3.726;2022-07-29T15:51:29;26.90;51.60
36850;DHT22;22783;51.034;3.726;2022-07-29T15:53:55;27.10;51.60
36850;DHT22;22783;51.034;3.726;2022-07-29T15:56:22;27.20;51.20
36850;DHT22;22783;51.034;3.726;2022-07-29T15:58:48;27.10;51.20
36850;DHT22;22783;51.034;3.726;2022-07-29T16:01:14;26.70;51.70
36850;DHT22;22783;51.034;3.726;2022-07-29T16:03:40;26.60;52.20
36850;DHT22;22783;51.034;3.726;2022-07-29T16:06:06;26.60;51.90
36850;DHT22;22783;51.034;3.726;2022-07-29T16:08:32;26.50;52.10
36850;DHT22;22783;51.034;3.726;2022-07-29T16:10:58;26.70;51.80
36850;DHT22;22783;51.034;3.726;2022-07-29T16:13:23;26.60;51.80
36850;DHT22;22783;51.034;3.726;2022-07-29T16:15:49;26.50;52.20
36850;DHT22;22783;51.034;3.726;2022-07-29T16:18:15;26.60;52.00
36850;DHT22;22783;51.034;3.726;2022-07-29T16:20:41;26.60;52.20
36850;DHT22;22783;51.034;3.726;2022-07-29T16:23:07;26.70;52.00
36850;DHT22;22783;51.034;3.726;2022-07-29T16:25:35;26.80;51.60
36850;DHT22;22783;51.034;3.726;2022-07-29T16:28:01;26.50;52.10
36850;DHT22;22783;51.034;3.726;2022-07-29T16:30:27;26.60;51.90
36850;DHT22;22783;51.034;3.726;2022-07-29T16:32:52;26.50;52.00
36850;DHT22;22783;51.034;3.726;2022-07-29T16:35:18;26.60;52.00
36850;DHT22;22783;51.034;3.726;2022-07-29T16:37:44;26.40;52.40
36850;DHT22;22783;51.034;3.726;2022-07-29T16:40:10;26.30;52.70
36850;DHT22;22783;51.034;3.726;2022-07-29T16:42:36;26.20;52.90
36850;DHT22;22783;51.034;3.726;2022-07-29T16:45:03;26.10;53.30
36850;DHT22;22783;51.034;3.726;2022-07-29T16:47:29;26.20;53.30
36850;DHT22;22783;51.034;3.726;2022-07-29T16:49:55;26.20;53.10
36850;DHT22;22783;51.034;3.726;2022-07-29T16:52:20;26.40;53.10
36850;DHT22;22783;51.034;3.726;2022-07-29T16:54:46;26.30;53.00
36850;DHT22;22783;51.034;3.726;2022-07-29T16:57:12;26.20;53.00
36850;DHT22;22783;51.034;3.726;2022-07-29T16:59:38;26.00;53.50
36850;DHT22;22783;51.034;3.726;2022-07-29T17:02:03;25.90;53.60
36850;DHT22;22783;51.034;3.726;2022-07-29T17:04:31;26.00;53.80
36850;DHT22;22783;51.034;3.726;2022-07-29T17:06:57;25.90;53.80